createdAt,value
2023-09-24T00:01:54.283Z,99.29
2023-09-24T00:04:57.321Z,99.27
2023-09-24T00:07:59.800Z,99.13
2023-09-24T00:11:04.091Z,99.17
2023-09-24T00:14:06.713Z,99.73
2023-09-24T00:17:09.986Z,99.33
2023-09-24T00:20:12.791Z,99.57
2023-09-24T00:23:18.037Z,99.92
2023-09-24T00:26:20.540Z,99.36
2023-09-24T00:29:24.750Z,99.14
2023-09-24T00:32:27.343Z,99.83
2023-09-24T00:35:31.321Z,99.40
2023-09-24T00:38:33.954Z,99.91
2023-09-24T00:41:37.732Z,100.00
2023-09-24T00:44:40.244Z,99.77
2023-09-24T00:47:44.395Z,99.96
2023-09-24T00:50:46.936Z,100.00
2023-09-24T00:53:50.480Z,100.00
2023-09-24T00:56:54.134Z,100.00
2023-09-24T00:59:56.690Z,100.00
2023-09-24T01:02:59.406Z,99.51
2023-09-24T01:06:02.025Z,99.30
2023-09-24T01:09:07.589Z,99.74
2023-09-24T01:12:21.739Z,99.61
2023-09-24T01:15:26.538Z,99.82
2023-09-24T01:18:29.336Z,99.90
2023-09-24T01:21:33.613Z,100.00
2023-09-24T01:24:36.407Z,100.00
2023-09-24T01:27:39.079Z,100.00
2023-09-24T01:30:41.741Z,100.00
2023-09-24T01:33:45.295Z,100.00
2023-09-24T01:36:48.161Z,100.00
2023-09-24T01:39:52.988Z,100.00
2023-09-24T01:43:01.548Z,100.00
2023-09-24T01:46:07.954Z,100.00
2023-09-24T01:49:11.576Z,100.00
2023-09-24T01:52:15.388Z,100.00
2023-09-24T01:55:17.976Z,100.00
2023-09-24T01:58:20.468Z,100.00
2023-09-24T02:01:24.028Z,100.00
2023-09-24T02:04:26.650Z,100.00
2023-09-24T02:07:29.174Z,100.00
2023-09-24T02:10:31.760Z,100.00
2023-09-24T02:13:34.126Z,100.00
2023-09-24T02:16:39.863Z,100.00
2023-09-24T02:19:45.967Z,100.00
2023-09-24T02:22:52.213Z,100.00
2023-09-24T02:25:54.892Z,100.00
2023-09-24T02:28:57.465Z,100.00
2023-09-24T02:32:00.046Z,100.00
2023-09-24T02:35:04.305Z,100.00
2023-09-24T02:38:06.959Z,100.00
2023-09-24T02:41:09.387Z,100.00
2023-09-24T02:44:12.075Z,100.00
2023-09-24T02:47:16.019Z,100.00
2023-09-24T02:50:19.485Z,100.00
2023-09-24T02:53:22.031Z,100.00
2023-09-24T02:56:24.697Z,100.00
2023-09-24T02:59:27.245Z,100.00
2023-09-24T03:02:29.922Z,100.00
2023-09-24T03:05:33.666Z,100.00
2023-09-24T03:08:37.431Z,100.00
2023-09-24T03:11:40.181Z,100.00
2023-09-24T03:14:43.101Z,100.00
2023-09-24T03:17:48.012Z,100.00
2023-09-24T03:20:51.841Z,100.00
2023-09-24T03:23:55.306Z,100.00
2023-09-24T03:26:58.866Z,100.00
2023-09-24T03:30:02.207Z,100.00
2023-09-24T03:33:06.170Z,100.00
2023-09-24T03:36:11.626Z,100.00
2023-09-24T03:39:14.706Z,100.00
2023-09-24T03:42:17.312Z,100.00
2023-09-24T03:45:20.850Z,100.00
2023-09-24T03:48:23.816Z,100.00
2023-09-24T03:51:27.304Z,100.00
2023-09-24T03:54:29.927Z,100.00
2023-09-24T03:57:32.566Z,100.00
2023-09-24T04:00:35.146Z,100.00
2023-09-24T04:03:38.689Z,100.00
2023-09-24T04:06:42.072Z,100.00
2023-09-24T04:09:45.034Z,100.00
2023-09-24T04:12:48.126Z,100.00
2023-09-24T04:15:53.960Z,100.00
2023-09-24T04:18:57.078Z,100.00
2023-09-24T04:21:59.653Z,100.00
2023-09-24T04:25:03.264Z,100.00
2023-09-24T04:28:06.020Z,100.00
2023-09-24T04:31:08.424Z,100.00
2023-09-24T04:34:13.767Z,100.00
2023-09-24T04:37:17.820Z,100.00
2023-09-24T04:40:20.703Z,100.00
2023-09-24T04:43:23.452Z,100.00
2023-09-24T04:46:27.159Z,99.70
2023-09-24T04:49:29.661Z,100.00
2023-09-24T04:52:33.041Z,100.00
2023-09-24T04:55:35.419Z,99.16
2023-09-24T04:58:37.894Z,99.84
2023-09-24T05:01:40.369Z,99.43
2023-09-24T05:04:44.422Z,99.91
2023-09-24T05:07:46.857Z,99.74
2023-09-24T05:10:50.978Z,99.58
2023-09-24T05:13:53.624Z,100.00
2023-09-24T05:16:56.098Z,100.00
2023-09-24T05:19:58.816Z,100.00
2023-09-24T05:23:01.809Z,99.87
2023-09-24T05:26:04.183Z,99.99
2023-09-24T05:29:06.877Z,100.00
2023-09-24T05:32:09.475Z,99.88
2023-09-24T05:35:12.333Z,100.00
2023-09-24T05:38:14.716Z,100.00
2023-09-24T05:41:17.602Z,100.00
2023-09-24T05:44:21.714Z,100.00
2023-09-24T05:47:24.330Z,100.00
2023-09-24T05:50:26.874Z,100.00
2023-09-24T05:53:29.396Z,100.00
2023-09-24T05:56:31.961Z,100.00
2023-09-24T05:59:34.644Z,100.00
2023-09-24T06:02:37.175Z,100.00
2023-09-24T06:05:40.237Z,100.00
2023-09-24T06:08:42.789Z,100.00
2023-09-24T06:11:47.171Z,99.84
2023-09-24T06:14:49.688Z,99.75
2023-09-24T06:17:52.336Z,99.31
2023-09-24T06:20:55.435Z,98.86
2023-09-24T06:23:58.713Z,98.90
2023-09-24T06:27:01.260Z,98.95
2023-09-24T06:30:06.074Z,98.76
2023-09-24T06:33:08.748Z,99.02
2023-09-24T06:36:11.190Z,99.26
2023-09-24T06:39:15.525Z,99.51
2023-09-24T06:42:18.007Z,99.51
2023-09-24T06:45:20.384Z,99.94
2023-09-24T06:48:23.914Z,99.53
2023-09-24T06:51:26.464Z,99.32
2023-09-24T06:54:29.001Z,100.00
2023-09-24T06:57:32.763Z,99.46
2023-09-24T07:00:35.540Z,100.00
2023-09-24T07:03:38.546Z,100.00
2023-09-24T07:06:42.183Z,100.00
2023-09-24T07:09:47.394Z,100.00
2023-09-24T07:12:49.749Z,100.00
2023-09-24T07:15:52.156Z,100.00
2023-09-24T07:18:55.217Z,99.88
2023-09-24T07:21:58.643Z,100.00
2023-09-24T07:25:01.109Z,100.00
2023-09-24T07:28:03.683Z,100.00
2023-09-24T07:31:15.574Z,100.00
2023-09-24T07:34:18.055Z,100.00
2023-09-24T07:37:20.696Z,100.00
2023-09-24T07:40:23.159Z,100.00
2023-09-24T07:43:25.589Z,100.00
2023-09-24T07:46:28.066Z,100.00
2023-09-24T07:49:30.709Z,100.00
2023-09-24T07:52:35.268Z,100.00
2023-09-24T07:55:38.066Z,100.00
2023-09-24T07:58:43.391Z,100.00
2023-09-24T08:01:45.781Z,100.00
2023-09-24T08:04:48.186Z,100.00
2023-09-24T08:07:50.631Z,100.00
2023-09-24T08:10:53.493Z,100.00
2023-09-24T08:13:56.394Z,99.85
2023-09-24T08:16:59.218Z,99.13
2023-09-24T08:20:01.733Z,98.70
2023-09-24T08:23:04.839Z,98.41
2023-09-24T08:26:07.322Z,98.20
2023-09-24T08:29:10.170Z,97.91
2023-09-24T08:32:12.607Z,98.46
2023-09-24T08:35:15.081Z,98.60
2023-09-24T08:38:17.429Z,99.29
2023-09-24T08:41:19.927Z,98.76
2023-09-24T08:44:22.615Z,98.64
2023-09-24T08:47:25.050Z,98.39
2023-09-24T08:50:27.500Z,97.46
2023-09-24T08:53:30.971Z,96.79
2023-09-24T08:56:33.483Z,97.18
2023-09-24T08:59:37.041Z,97.24
2023-09-24T09:02:44.393Z,96.62
2023-09-24T09:05:47.787Z,96.90
2023-09-24T09:08:53.813Z,97.00
2023-09-24T09:11:56.888Z,97.77
2023-09-24T09:14:59.501Z,97.15
2023-09-24T09:18:02.462Z,97.67
2023-09-24T09:21:05.258Z,97.06
2023-09-24T09:24:21.533Z,97.38
2023-09-24T09:27:24.038Z,96.25
2023-09-24T09:30:26.513Z,95.78
2023-09-24T09:33:30.053Z,95.88
2023-09-24T09:36:36.341Z,96.45
2023-09-24T09:39:38.760Z,95.00
2023-09-24T09:42:41.224Z,94.98
2023-09-24T09:45:46.623Z,96.19
2023-09-24T09:48:55.952Z,96.07
2023-09-24T09:52:02.252Z,95.85
2023-09-24T09:55:05.992Z,95.81
2023-09-24T09:58:21.610Z,95.06
2023-09-24T10:01:25.873Z,94.23
2023-09-24T10:04:30.732Z,94.51
2023-09-24T10:07:37.580Z,94.76
2023-09-24T10:10:41.841Z,95.03
2023-09-24T10:13:45.655Z,94.69
2023-09-24T10:16:48.529Z,95.38
2023-09-24T10:19:52.211Z,95.85
2023-09-24T10:22:57.270Z,95.45
2023-09-24T10:26:06.106Z,95.66
2023-09-24T10:29:09.503Z,96.44
2023-09-24T10:32:16.231Z,96.17
2023-09-24T10:35:19.125Z,96.51
2023-09-24T10:38:21.733Z,96.66
2023-09-24T10:41:24.428Z,97.49
2023-09-24T10:44:28.984Z,97.87
2023-09-24T10:47:32.626Z,97.73
2023-09-24T10:50:35.178Z,97.65
2023-09-24T10:53:37.828Z,98.76
2023-09-24T10:56:40.324Z,98.21
2023-09-24T10:59:42.708Z,98.42
2023-09-24T11:02:46.736Z,98.50
2023-09-24T11:05:50.019Z,97.96
2023-09-24T11:08:52.837Z,97.46
2023-09-24T11:11:55.309Z,97.03
2023-09-24T11:15:14.510Z,96.93
2023-09-24T11:18:18.115Z,96.02
2023-09-24T11:21:21.045Z,96.49
2023-09-24T11:24:23.989Z,96.24
2023-09-24T11:27:26.430Z,95.08
2023-09-24T11:30:47.453Z,94.67
2023-09-24T11:33:57.706Z,94.28
2023-09-24T11:37:00.284Z,94.24
2023-09-24T11:40:02.764Z,94.27
2023-09-24T11:43:15.306Z,94.18
2023-09-24T11:46:27.158Z,93.26
2023-09-24T11:49:29.649Z,93.47
2023-09-24T11:52:33.170Z,93.39
2023-09-24T11:55:36.225Z,94.29
2023-09-24T11:58:39.564Z,93.54
2023-09-24T12:01:42.618Z,92.57
2023-09-24T12:04:47.028Z,92.85
2023-09-24T12:07:51.700Z,93.31
2023-09-24T12:10:54.223Z,92.20
2023-09-24T12:13:57.726Z,91.73
2023-09-24T12:17:00.192Z,91.60
2023-09-24T12:20:02.893Z,91.76
2023-09-24T12:23:07.590Z,91.92
2023-09-24T12:26:10.090Z,92.10
2023-09-24T12:29:12.562Z,91.61
2023-09-24T12:32:15.144Z,92.46
2023-09-24T12:35:17.835Z,91.93
2023-09-24T12:38:20.302Z,91.74
2023-09-24T12:41:23.573Z,91.79
2023-09-24T12:44:26.021Z,90.92
2023-09-24T12:47:34.249Z,92.01
2023-09-24T12:50:37.112Z,91.35
2023-09-24T12:53:42.156Z,91.22
2023-09-24T12:56:44.967Z,91.50
2023-09-24T12:59:47.494Z,91.27
2023-09-24T13:02:50.129Z,92.61
2023-09-24T13:05:52.684Z,91.83
2023-09-24T13:08:55.182Z,91.82
2023-09-24T13:11:59.658Z,91.60
2023-09-24T13:15:02.384Z,91.26
2023-09-24T13:18:05.130Z,91.60
2023-09-24T13:21:07.730Z,91.91
2023-09-24T13:24:10.254Z,92.10
2023-09-24T13:27:12.719Z,92.71
2023-09-24T13:30:15.214Z,92.29
2023-09-24T13:33:17.830Z,92.74
2023-09-24T13:36:20.450Z,92.90
2023-09-24T13:39:23.327Z,92.80
2023-09-24T13:42:25.843Z,93.55
2023-09-24T13:45:28.941Z,91.87
2023-09-24T13:48:31.953Z,91.75
2023-09-24T13:51:37.263Z,91.67
2023-09-24T13:54:40.203Z,92.26
2023-09-24T13:57:42.660Z,92.67
2023-09-24T14:00:53.286Z,92.82
2023-09-24T14:03:56.125Z,93.62
2023-09-24T14:06:58.952Z,92.80
2023-09-24T14:10:20.120Z,93.02
2023-09-24T14:13:22.592Z,92.46
2023-09-24T14:16:25.003Z,92.22
2023-09-24T14:19:27.505Z,93.16
2023-09-24T14:22:29.880Z,92.81
2023-09-24T14:25:33.590Z,92.97
2023-09-24T14:28:36.113Z,93.15
2023-09-24T14:31:38.542Z,93.95
2023-09-24T14:34:41.017Z,92.91
2023-09-24T14:37:43.503Z,92.38
2023-09-24T14:40:45.923Z,93.32
2023-09-24T14:43:48.537Z,93.08
2023-09-24T14:46:51.082Z,93.22
2023-09-24T14:49:53.525Z,92.78
2023-09-24T14:52:56.087Z,93.34
2023-09-24T14:56:01.496Z,92.91
2023-09-24T14:59:04.081Z,93.81
2023-09-24T15:02:06.654Z,93.83
2023-09-24T15:05:09.630Z,93.80
2023-09-24T15:08:12.266Z,94.04
2023-09-24T15:11:14.738Z,93.77
2023-09-24T15:14:18.840Z,94.52
2023-09-24T15:17:21.333Z,94.59
2023-09-24T15:20:23.786Z,94.77
2023-09-24T15:23:26.617Z,95.26
2023-09-24T15:26:29.174Z,95.13
2023-09-24T15:29:31.754Z,95.63
2023-09-24T15:32:34.273Z,95.85
2023-09-24T15:35:37.234Z,96.01
2023-09-24T15:38:39.702Z,96.06
2023-09-24T15:41:45.268Z,95.88
2023-09-24T15:44:47.757Z,95.83
2023-09-24T15:47:50.413Z,94.83
2023-09-24T15:50:53.311Z,95.53
2023-09-24T15:53:55.929Z,95.98
2023-09-24T15:56:58.358Z,96.43
2023-09-24T16:00:00.844Z,96.43
2023-09-24T16:03:03.732Z,96.52
2023-09-24T16:06:06.367Z,96.01
2023-09-24T16:09:08.992Z,96.46
2023-09-24T16:12:11.518Z,96.52
2023-09-24T16:15:15.414Z,96.63
2023-09-24T16:18:17.927Z,96.16
2023-09-24T16:21:20.452Z,96.13
2023-09-24T16:24:22.933Z,96.09
2023-09-24T16:27:25.408Z,96.41
2023-09-24T16:30:27.882Z,95.99
2023-09-24T16:33:30.395Z,96.60
2023-09-24T16:36:34.794Z,96.95
2023-09-24T16:39:37.523Z,97.43
2023-09-24T16:42:40.122Z,97.83
2023-09-24T16:45:49.865Z,98.74
2023-09-24T16:48:52.393Z,99.43
2023-09-24T16:51:54.837Z,99.37
2023-09-24T16:54:57.257Z,100.00
2023-09-24T16:58:00.183Z,99.23
2023-09-24T17:01:02.720Z,100.00
2023-09-24T17:04:05.597Z,99.80
2023-09-24T17:07:08.124Z,99.68
2023-09-24T17:10:11.968Z,100.00
2023-09-24T17:13:16.147Z,99.84
2023-09-24T17:16:20.360Z,100.00
2023-09-24T17:19:23.925Z,99.79
2023-09-24T17:22:27.593Z,99.35
2023-09-24T17:25:30.062Z,99.48
2023-09-24T17:28:32.476Z,99.85
2023-09-24T17:31:35.048Z,100.00
2023-09-24T17:34:37.598Z,100.00
2023-09-24T17:37:40.174Z,100.00
2023-09-24T17:40:42.857Z,100.00
2023-09-24T17:43:45.341Z,100.00
2023-09-24T17:46:48.532Z,100.00
2023-09-24T17:49:51.007Z,100.00
2023-09-24T17:52:53.585Z,100.00
2023-09-24T17:55:56.684Z,100.00
2023-09-24T17:58:59.053Z,100.00
2023-09-24T18:02:01.651Z,100.00
2023-09-24T18:05:04.597Z,100.00
2023-09-24T18:08:08.303Z,100.00
2023-09-24T18:11:10.815Z,100.00
2023-09-24T18:14:13.493Z,100.00
2023-09-24T18:17:15.983Z,100.00
2023-09-24T18:20:18.449Z,100.00
2023-09-24T18:23:21.237Z,100.00
2023-09-24T18:26:23.675Z,100.00
2023-09-24T18:29:26.138Z,100.00
2023-09-24T18:32:28.617Z,100.00
2023-09-24T18:35:31.157Z,100.00
2023-09-24T18:38:33.734Z,100.00
2023-09-24T18:41:36.211Z,100.00
2023-09-24T18:44:38.790Z,100.00
2023-09-24T18:47:41.356Z,100.00
2023-09-24T18:50:44.157Z,100.00
2023-09-24T18:53:47.421Z,100.00
2023-09-24T18:56:50.231Z,100.00
2023-09-24T18:59:53.452Z,100.00
2023-09-24T19:02:56.139Z,100.00
2023-09-24T19:05:58.750Z,100.00
2023-09-24T19:09:01.306Z,100.00
2023-09-24T19:12:03.773Z,100.00
2023-09-24T19:15:08.114Z,100.00
2023-09-24T19:18:12.060Z,100.00
2023-09-24T19:21:14.505Z,100.00
2023-09-24T19:24:17.012Z,100.00
2023-09-24T19:27:20.165Z,100.00
2023-09-24T19:30:22.864Z,100.00
2023-09-24T19:33:25.444Z,100.00
2023-09-24T19:36:28.038Z,100.00
2023-09-24T19:39:30.642Z,100.00
2023-09-24T19:42:35.351Z,100.00
2023-09-24T19:45:37.973Z,100.00
2023-09-24T19:48:40.673Z,100.00
2023-09-24T19:51:43.552Z,100.00
2023-09-24T19:54:46.137Z,100.00
2023-09-24T19:57:48.613Z,100.00
2023-09-24T20:00:51.496Z,100.00
2023-09-24T20:03:53.974Z,100.00
2023-09-24T20:06:59.577Z,100.00
2023-09-24T20:10:02.717Z,100.00
2023-09-24T20:13:05.308Z,100.00
2023-09-24T20:16:07.913Z,100.00
2023-09-24T20:19:10.781Z,100.00
2023-09-24T20:22:13.239Z,100.00
2023-09-24T20:25:27.589Z,100.00
2023-09-24T20:28:41.871Z,100.00
2023-09-24T20:31:50.646Z,100.00
2023-09-24T20:34:53.184Z,100.00
2023-09-24T20:37:55.628Z,100.00
2023-09-24T20:41:15.180Z,100.00
2023-09-24T20:44:17.786Z,100.00
2023-09-24T20:47:20.998Z,100.00
2023-09-24T20:50:23.420Z,100.00
2023-09-24T20:53:25.950Z,100.00
2023-09-24T20:56:28.836Z,100.00
2023-09-24T20:59:31.858Z,100.00
2023-09-24T21:02:34.328Z,100.00
2023-09-24T21:05:37.200Z,100.00
2023-09-24T21:08:39.593Z,100.00
2023-09-24T21:11:42.052Z,100.00
2023-09-24T21:14:44.842Z,100.00
2023-09-24T21:17:47.445Z,100.00
2023-09-24T21:20:53.067Z,100.00
2023-09-24T21:23:55.468Z,100.00
2023-09-24T21:26:58.092Z,100.00
2023-09-24T21:30:00.721Z,100.00
2023-09-24T21:33:03.370Z,100.00
2023-09-24T21:36:06.950Z,100.00
2023-09-24T21:39:09.707Z,100.00
2023-09-24T21:42:12.985Z,100.00
2023-09-24T21:45:15.482Z,100.00
2023-09-24T21:48:17.944Z,100.00
2023-09-24T21:51:20.520Z,100.00
2023-09-24T21:54:23.006Z,100.00
2023-09-24T21:57:25.539Z,100.00
2023-09-24T22:00:32.144Z,100.00
2023-09-24T22:03:34.911Z,100.00
2023-09-24T22:06:37.605Z,100.00
2023-09-24T22:09:40.757Z,100.00
2023-09-24T22:12:43.168Z,100.00
2023-09-24T22:15:46.710Z,100.00
2023-09-24T22:18:49.684Z,100.00
2023-09-24T22:21:52.836Z,100.00
2023-09-24T22:24:55.331Z,100.00
2023-09-24T22:27:57.774Z,100.00
2023-09-24T22:31:06.840Z,100.00
2023-09-24T22:34:09.321Z,100.00
2023-09-24T22:37:11.806Z,100.00
2023-09-24T22:40:15.666Z,99.92
2023-09-24T22:43:26.087Z,100.00
2023-09-24T22:46:29.527Z,100.00
2023-09-24T22:49:32.064Z,100.00
2023-09-24T22:52:34.945Z,99.82
2023-09-24T22:55:37.421Z,99.87
2023-09-24T22:58:39.905Z,99.34
2023-09-24T23:01:42.452Z,99.57
2023-09-24T23:04:44.926Z,100.00
2023-09-24T23:07:47.544Z,100.00
2023-09-24T23:10:50.016Z,100.00
2023-09-24T23:13:52.392Z,99.29
2023-09-24T23:16:54.884Z,99.76
2023-09-24T23:19:57.346Z,99.92
2023-09-24T23:22:59.850Z,100.00
2023-09-24T23:26:02.201Z,100.00
2023-09-24T23:29:05.212Z,99.65
2023-09-24T23:32:07.671Z,99.94
2023-09-24T23:35:10.147Z,99.45
2023-09-24T23:38:12.625Z,99.59
2023-09-24T23:41:15.068Z,99.85
2023-09-24T23:44:17.443Z,99.35
2023-09-24T23:47:19.923Z,99.37
2023-09-24T23:50:22.304Z,99.61
2023-09-24T23:53:24.670Z,100.00
2023-09-24T23:56:27.386Z,99.71
2023-09-24T23:59:29.865Z,99.45
